Terminal Aerodrome Forecast
Issued by NWS Austin/San Antonio, TX

Home | Current Version | Previous Version | Text Only | Print | Product List | Glossary On
Versions: 1 2 3 4 5 6 7 8 9 10 11 12
848
FTUS44 KEWX 072338
TAFSAT
TAF
KSAT 072338Z 0800/0906 22005KT P6SM FEW250
     FM080600 36011KT P6SM SCT250
     FM080900 01014G24KT P6SM SCT250
     FM090000 01011KT P6SM FEW250=

USA.gov is the U.S. government's official web portal to all federal, state and local government web resources and services.